NCAR-RAP Real-Time Weather Data

Output produced by METARs form (12 August 2020  18:46 UTC)
found at http://weather.rap.ucar.edu/surface/
 
KGLD 121753Z AUTO 18012KT 10SM CLR 27/16 A3003 RMK AO2 SLP123 T02670156 10267 20167 55003
KGLD 121653Z AUTO 17013KT 10SM CLR 26/14 A3002 RMK AO2 PK WND 20026/1631 SLP122 T02560144
KGLD 121553Z AUTO 17016KT 10SM CLR 25/14 A3003 RMK AO2 SLP122 T02500139
KGLD 121453Z AUTO 16016KT 10SM CLR 22/13 A3004 RMK AO2 SLP131 T02170128 58011
KGLD 121353Z AUTO 17010KT 10SM CLR 20/13 A3005 RMK AO2 SLP140 T02000133 TSNO
KGLD 121253Z AUTO 15008KT 10SM CLR 18/13 A3006 RMK AO2 SLP147 T01830128 TSNO
KGLD 121153Z AUTO 12006KT 10SM CLR 17/13 A3007 RMK AO2 SLP145 60017 70049 T01720133 10206 20172 50015 TSNO
KGLD 121053Z AUTO 05009KT 10SM OVC070 18/14 A3012 RMK AO2 SLP153 T01780139 TSNO
KGLD 120953Z AUTO VRB04KT 10SM FEW070 18/13 A3009 RMK AO2 PRESRR SLP140 T01780133 TSNO
KGLD 120853Z AUTO 13007KT 10SM CLR 18/14 A3003 RMK AO2 PK WND 12027/0800 LTG DSNT N AND NE SLP119 60017 T01780139 55006
KGLD 120802Z AUTO 12017G27KT 10SM FEW100 18/15 A3000 RMK AO2 PK WND 12027/0800 LTG DSNT NW-E T01830150
KGLD 120753Z AUTO 13017G28KT 10SM VCTS SCT100 18/16 A3001 RMK AO2 PK WND 13031/0701 LTG DSNT NW-E TSE16 SLP114 T01830156
KGLD 120722Z AUTO 14015G29KT 10SM VCTS BKN095 OVC110 19/16 A3001 RMK AO2 PK WND 13031/0701 LTG DSNT ALQDS TSE16 T01940156
KGLD 120653Z AUTO 13017G27KT 10SM TS FEW070 BKN085 BKN110 20/16 A3000 RMK AO2 PK WND 11036/0600 LTG DSNT SE RAE35 TSB21E36B42 SLP111 P0017 T02000156 403280161
KGLD 120627Z AUTO 15017G27KT 5SM -TSRA BKN049 BKN075 BKN110 19/16 A3003 RMK AO2 PK WND 11036/0600 LTG DSNT E AND SE TSB21 P0017 T01940156
KGLD 120553Z AUTO 13019G32KT 10SM VCTS -RA SCT038 SCT090 SCT110 20/15 A3005 RMK AO2 PK WND 09033/0541 LTG DSNT NE AND S AND SW RAB24 SLP127 P0000 60032 T02000150 10244 20183 51025
KGLD 120544Z AUTO 11019G33KT 10SM VCTS -RA SCT045 BKN090 BKN110 19/16 A3002 RMK AO2 PK WND 09033/0541 LTG DSNT ALQDS RAB24 P0000 T01940156
KGLD 120453Z AUTO 11010G22KT 10SM CLR 22/16 A3002 RMK AO2 PK WND 15026/0356 LTG DSNT ALQDS SLP122 T02170156
KGLD 120353Z AUTO 14013G20KT 10SM FEW075 FEW100 SCT120 23/14 A3000 RMK AO2 LTG DSNT N AND S AND SW SLP115 T02280139
KGLD 120253Z AUTO 17011KT 10SM CLR 21/12 A2996 RMK AO2 LTG DSNT N RAE0159 SLP107 P0000 60032 T02110122 55017
KGLD 120153Z AUTO 03011G21KT 10SM -RA FEW060 FEW090 BKN110 20/13 A2991 RMK AO2 PK WND 11030/0100 WSHFT 0132 LTG DSNT E AND S AND NW RAE14B29 TSE05 SLP092 P0000 T02000133
KGLD 120143Z AUTO 08017G26KT 10SM -RA FEW055 FEW090 BKN110 21/13 A2991 RMK AO2 PK WND 11030/0100 WSHFT 0123 LTG DSNT E AND S RAE14B29 TSE05 PRESFR P0000 T02060133
KGLD 120119Z AUTO 08007G28KT 10SM SCT095 SCT120 21/13 A2994 RMK AO2 PK WND 11030/0100 WSHFT 0050 LTG DSNT NE-S RAE14 TSE05 P0000 T02110128
KGLD 120105Z AUTO 12020G30KT 10SM VCTS -RA FEW055 FEW080 OVC110 20/13 A2994 RMK AO2 PK WND 11030/0100 WSHFT 0050 LTG DSNT ALQDS TSE05 PRESFR P0000 T02000133
KGLD 120053Z AUTO 12016G22KT 10SM -TSRA FEW034 OVC100 19/14 A3002 RMK AO2 PK WND 34047/0010 LTG DSNT NE AND E RAB04 SLP134 P0032 T01890139
KGLD 120043Z AUTO 34004G21KT 10SM -TSRA SCT049 OVC110 18/14 A3006 RMK AO2 PK WND 34047/0010 LTG DSNT ALQDS RAB04 P0032 T01830139
KGLD 120033Z AUTO 15013G35KT 2SM +TSRA BKN045 BKN075 OVC100 22/12 A3000 RMK AO2 PK WND 34047/0010 LTG DSNT ALQDS RAB04 P0031 T02170117
KGLD 112353Z AUTO 34023G37KT 10SM TS BKN065 24/11 A3001 RMK AO2 PK WND 35045/2337 WSHFT 2325 LTG DSNT ALQDS TSB41 SLP126 T02440106 10328 20244 53020
KGLD 112341Z AUTO 34019G45KT 9SM TS SCT060 26/12 A2996 RMK AO2 PK WND 35045/2337 WSHFT 2325 LTG DSNT ALQDS TSB41 T02610117
KGLD 112332Z AUTO 34018G39KT 10SM SQ FEW060 25/12 A2997 RMK AO2 PK WND 28039/2326 LTG DSNT ALQDS T02500117
KGLD 112253Z AUTO 16018G25KT 10SM CLR 30/16 A2991 RMK AO2 PK WND 16030/2207 LTG DSNT W-N SLP083 T03000161